KLNA

Details ICAO KLNA (LNA)
Name Palm Beach Co Park
Region United States
Timezone America/New_York (UTC-4.0)
Plans Departing 17
Arriving 13
Stats Elevation 14 ft / 4 m (AMSL)
Location 26.593038° -80.085088°
Runways 3
Magnetic Variation 6.929° W
Sunrise 2018-05-23 10:31:05 UTC / 2018-05-23 06:31:05 Local
Sunset 2018-05-24 00:06:00 UTC / 2018-05-23 20:06:00 Local
Advertisement - Login to hide

Runways

ID Width Length Bearing (true) Bearing (mag) Surface Threshold Offset Overrun Length
03 75 ft / 23 m 3,263 ft / 995 m 31.83° 38.76° Asphalt 0 ft / 0 m 0 ft / 0 m
09 75 ft / 23 m 3,484 ft / 1,062 m 91.97° 98.90° Asphalt 0 ft / 0 m 0 ft / 0 m
15 100 ft / 30 m 3,431 ft / 1,046 m 152.10° 159.03° Asphalt 0 ft / 0 m 0 ft / 0 m
21 75 ft / 23 m 3,263 ft / 995 m 211.83° 218.76° Asphalt 0 ft / 0 m 0 ft / 0 m
27 75 ft / 23 m 3,484 ft / 1,062 m 271.97° 278.90° Asphalt 0 ft / 0 m 0 ft / 0 m
33 100 ft / 30 m 3,431 ft / 1,046 m 332.11° 339.04° Asphalt 0 ft / 0 m 0 ft / 0 m

Map

Weather


0- 5 10 15 20 25 30 35+ Temperature / ° C

Clouds and Precipitation
Forecast for 2018-05-23 18:00 UTC. Updated 6 hours ago

Ground ~20,000 ft ~40,000 ft Winds

METAR

KLNA 232255Z AUTO 12008KT 10SM CLR 27/23 A3007 RMK AO2 T02700225

TAF

Not found

Frequencies

Unicom 122.70 MHz CTAF/UNICOM
Approach 127.35 MHz APP/DEP
Warning: Do not use this data for real-world aviation or navigation. No guarantee of current accuracy is given.